createdAt,value
2022-08-19T00:27:51.759Z,17.42
2022-08-19T00:30:20.519Z,16.88
2022-08-19T00:32:48.359Z,17.63
2022-08-19T00:35:16.322Z,17.40
2022-08-19T00:37:44.631Z,16.92
2022-08-19T00:40:14.294Z,16.65
2022-08-19T00:42:42.455Z,16.98
2022-08-19T00:45:15.690Z,17.30
2022-08-19T00:47:43.589Z,16.65
2022-08-19T00:50:13.037Z,17.50
2022-08-19T00:52:46.329Z,17.23
2022-08-19T00:55:17.691Z,18.33
2022-08-19T00:57:50.173Z,18.35
2022-08-19T01:00:20.994Z,18.10
2022-08-19T01:02:49.831Z,17.07
2022-08-19T01:05:22.189Z,17.85
2022-08-19T01:07:51.508Z,18.15
2022-08-19T01:10:22.055Z,17.88
2022-08-19T01:12:51.827Z,18.38
2022-08-19T01:15:26.466Z,17.83
2022-08-19T01:17:56.970Z,16.85
2022-08-19T01:20:26.040Z,18.48
2022-08-19T01:22:58.231Z,18.83
2022-08-19T01:25:33.072Z,19.17
2022-08-19T01:28:03.045Z,19.25
2022-08-19T01:30:39.429Z,18.77
2022-08-19T01:33:12.664Z,19.13
2022-08-19T01:35:41.025Z,18.85
2022-08-19T01:38:21.277Z,18.08
2022-08-19T01:40:49.522Z,19.02
2022-08-19T01:43:19.931Z,20.60
2022-08-19T01:45:48.525Z,20.38
2022-08-19T01:48:16.502Z,18.85
2022-08-19T01:50:44.726Z,18.60
2022-08-19T01:53:14.161Z,19.48
2022-08-19T01:55:46.129Z,19.13
2022-08-19T01:58:17.982Z,19.88
2022-08-19T02:00:47.173Z,19.08
2022-08-19T02:03:16.879Z,20.25
2022-08-19T02:05:46.612Z,20.13
2022-08-19T02:08:15.917Z,20.38
2022-08-19T02:10:45.573Z,20.55
2022-08-19T02:13:15.317Z,21.20
2022-08-19T02:15:43.660Z,21.73
2022-08-19T02:18:12.215Z,21.33
2022-08-19T02:20:41.171Z,20.23
2022-08-19T02:23:13.467Z,21.67
2022-08-19T02:25:45.415Z,19.65
2022-08-19T02:28:18.357Z,20.67
2022-08-19T02:30:48.884Z,19.88
2022-08-19T02:33:17.614Z,21.92
2022-08-19T02:35:46.816Z,20.40
2022-08-19T02:38:27.829Z,20.95
2022-08-19T02:40:59.941Z,20.87
2022-08-19T02:43:29.745Z,19.98
2022-08-19T02:46:02.124Z,20.10
2022-08-19T02:48:30.069Z,20.00
2022-08-19T02:50:57.832Z,19.80
2022-08-19T02:53:28.958Z,19.77
2022-08-19T02:55:58.101Z,19.80
2022-08-19T02:58:27.637Z,19.75
2022-08-19T03:00:57.625Z,19.75
2022-08-19T03:03:25.574Z,18.83
2022-08-19T03:05:56.450Z,19.10
2022-08-19T03:08:26.551Z,20.75
2022-08-19T03:10:55.117Z,20.50
2022-08-19T03:13:24.979Z,19.27
2022-08-19T03:15:52.951Z,18.98
2022-08-19T03:18:23.253Z,19.27
2022-08-19T03:20:55.399Z,20.08
2022-08-19T03:23:24.670Z,20.63
2022-08-19T03:26:03.158Z,18.48
2022-08-19T03:28:49.458Z,18.23
2022-08-19T03:31:44.682Z,18.38
2022-08-19T03:34:10.510Z,17.27
2022-08-19T03:36:38.917Z,17.00
2022-08-19T03:39:06.902Z,17.45
2022-08-19T03:41:45.844Z,16.52
2022-08-19T03:44:18.452Z,16.48
2022-08-19T03:46:48.617Z,16.45
2022-08-19T03:49:18.499Z,16.63
2022-08-19T03:51:48.008Z,17.33
2022-08-19T03:54:18.981Z,17.17
2022-08-19T03:56:49.108Z,16.45
2022-08-19T03:59:21.800Z,14.75
2022-08-19T04:01:49.552Z,15.27
2022-08-19T04:04:17.293Z,15.50
2022-08-19T04:06:48.758Z,16.30
2022-08-19T04:09:17.050Z,15.77
2022-08-19T04:11:46.685Z,16.02
2022-08-19T04:14:20.528Z,15.55
2022-08-19T04:16:50.515Z,15.75
2022-08-19T04:19:19.814Z,15.45
2022-08-19T04:21:50.827Z,16.15
2022-08-19T04:24:18.790Z,14.90
2022-08-19T04:26:47.842Z,15.23
2022-08-19T04:29:17.637Z,13.98
2022-08-19T04:31:47.544Z,14.70
2022-08-19T04:34:18.596Z,15.40
2022-08-19T04:36:47.721Z,15.07
2022-08-19T04:39:18.052Z,14.48
2022-08-19T04:42:03.718Z,15.40
2022-08-19T04:44:33.302Z,15.02
2022-08-19T04:47:11.396Z,16.77
2022-08-19T04:49:39.606Z,16.75
2022-08-19T04:52:09.387Z,17.00
2022-08-19T04:54:39.277Z,16.88
2022-08-19T04:57:11.160Z,17.58
2022-08-19T04:59:41.167Z,16.88
2022-08-19T05:02:11.481Z,16.23
2022-08-19T05:04:40.379Z,16.42
2022-08-19T05:07:09.138Z,16.02
2022-08-19T05:09:57.638Z,16.88
2022-08-19T05:12:29.037Z,16.45
2022-08-19T05:14:58.012Z,15.98
2022-08-19T05:17:32.354Z,15.55
2022-08-19T05:20:23.007Z,15.98
2022-08-19T05:22:51.198Z,16.30
2022-08-19T05:25:21.677Z,14.90
2022-08-19T05:27:50.154Z,15.70
2022-08-19T05:30:33.648Z,16.65
2022-08-19T05:33:10.925Z,16.55
2022-08-19T05:35:40.095Z,17.92
2022-08-19T05:38:09.238Z,17.23
2022-08-19T05:40:37.973Z,20.27
2022-08-19T05:43:07.566Z,20.92
2022-08-19T05:45:41.432Z,24.23
2022-08-19T05:48:12.239Z,25.42
2022-08-19T05:50:41.062Z,24.52
2022-08-19T05:53:09.742Z,25.40
2022-08-19T05:55:39.071Z,24.73
2022-08-19T05:58:08.464Z,24.75
2022-08-19T06:00:36.810Z,24.50
2022-08-19T06:03:12.853Z,24.27
2022-08-19T06:05:49.708Z,24.13
2022-08-19T06:08:33.582Z,24.55
2022-08-19T06:11:16.010Z,22.90
2022-08-19T06:13:45.024Z,22.50
2022-08-19T06:16:12.746Z,24.02
2022-08-19T06:18:40.638Z,24.20
2022-08-19T06:21:09.957Z,24.42
2022-08-19T06:23:37.765Z,27.42
2022-08-19T06:26:05.987Z,29.45
2022-08-19T06:28:34.445Z,28.75
2022-08-19T06:31:08.249Z,30.63
2022-08-19T06:33:36.352Z,34.75
2022-08-19T06:36:04.401Z,37.95
2022-08-19T06:38:35.309Z,38.85
2022-08-19T06:41:07.677Z,47.85
2022-08-19T06:43:42.137Z,47.83
2022-08-19T06:46:15.400Z,45.05
2022-08-19T06:48:45.892Z,43.10
2022-08-19T06:51:16.527Z,42.15
2022-08-19T06:56:25.880Z,36.83
2022-08-19T06:58:53.913Z,34.92
2022-08-19T07:01:22.444Z,31.63
2022-08-19T07:03:50.852Z,29.67
2022-08-19T07:09:12.312Z,28.75
2022-08-19T07:11:40.389Z,27.05
2022-08-19T07:14:19.041Z,24.13
2022-08-19T07:16:49.680Z,23.50
2022-08-19T07:19:19.095Z,23.85
2022-08-19T07:21:50.901Z,24.88
2022-08-19T07:24:21.378Z,24.27
2022-08-19T07:26:51.930Z,21.60
2022-08-19T07:29:25.648Z,21.38
2022-08-19T07:32:00.234Z,16.85
2022-08-19T07:34:31.208Z,16.92
2022-08-19T07:36:59.893Z,14.90
2022-08-19T07:39:31.544Z,15.27
2022-08-19T07:42:02.997Z,13.50
2022-08-19T07:44:31.214Z,12.85
2022-08-19T07:47:00.992Z,13.68
2022-08-19T07:49:29.713Z,13.93
2022-08-19T07:52:00.186Z,12.80
2022-08-19T07:54:32.395Z,12.60
2022-08-19T07:57:00.498Z,12.05
2022-08-19T07:59:29.336Z,11.38
2022-08-19T08:01:57.851Z,11.45
2022-08-19T08:04:43.562Z,12.05
2022-08-19T08:07:31.644Z,11.82
2022-08-19T08:10:03.022Z,10.95
2022-08-19T08:12:35.107Z,11.73
2022-08-19T08:15:08.806Z,13.25
2022-08-19T08:17:48.607Z,13.75
2022-08-19T08:20:19.341Z,13.82
2022-08-19T08:23:06.005Z,15.02
2022-08-19T08:25:38.738Z,13.65
2022-08-19T08:28:11.432Z,14.25
2022-08-19T08:30:46.775Z,14.23
2022-08-19T08:35:50.084Z,13.25
2022-08-19T08:38:18.943Z,13.18
2022-08-19T08:40:50.888Z,13.88
2022-08-19T08:43:30.754Z,13.35
2022-08-19T08:46:05.130Z,13.25
2022-08-19T08:48:41.668Z,13.02
2022-08-19T08:51:13.210Z,11.82
2022-08-19T08:53:44.086Z,13.52
2022-08-19T08:56:17.067Z,12.40
2022-08-19T08:58:54.789Z,12.85
2022-08-19T09:01:23.394Z,12.38
2022-08-19T09:03:51.806Z,11.80
2022-08-19T09:06:29.782Z,11.73
2022-08-19T09:09:11.660Z,13.25
2022-08-19T09:11:52.877Z,13.55
2022-08-19T09:14:52.225Z,12.68
2022-08-19T09:17:28.996Z,12.95
2022-08-19T09:20:03.565Z,12.07
2022-08-19T09:22:33.268Z,12.43
2022-08-19T09:25:02.242Z,12.00
2022-08-19T09:27:42.731Z,11.68
2022-08-19T09:30:18.207Z,12.25
2022-08-19T09:32:46.927Z,13.40
2022-08-19T09:35:24.300Z,12.85
2022-08-19T09:37:57.826Z,12.00
2022-08-19T09:40:30.250Z,10.90
2022-08-19T09:43:15.542Z,11.05
2022-08-19T09:46:02.414Z,11.55
2022-08-19T09:48:30.251Z,11.57
2022-08-19T09:51:04.894Z,10.68
2022-08-19T09:53:32.945Z,10.98
2022-08-19T09:56:01.955Z,10.10
2022-08-19T09:58:33.635Z,9.13
2022-08-19T10:01:03.593Z,8.60
2022-08-19T10:03:33.050Z,8.57
2022-08-19T10:06:03.788Z,10.27
2022-08-19T10:11:27.497Z,10.32
2022-08-19T10:13:51.532Z,10.18
2022-08-19T10:16:23.227Z,10.98
2022-08-19T10:18:58.930Z,9.82
2022-08-19T10:21:32.161Z,9.93
2022-08-19T10:24:04.733Z,10.30
2022-08-19T10:26:35.564Z,10.57
2022-08-19T10:29:09.211Z,10.07
2022-08-19T10:31:58.790Z,9.50
2022-08-19T10:34:27.833Z,9.52
2022-08-19T10:37:01.278Z,9.60
2022-08-19T10:39:32.930Z,9.73
2022-08-19T10:42:13.875Z,9.23
2022-08-19T10:44:43.498Z,9.30
2022-08-19T10:47:21.907Z,8.82
2022-08-19T10:50:12.501Z,8.68
2022-08-19T10:52:49.629Z,7.93
2022-08-19T10:55:39.163Z,9.40
2022-08-19T10:58:13.199Z,8.13
2022-08-19T11:00:43.819Z,7.75
2022-08-19T11:03:12.151Z,8.02
2022-08-19T11:05:40.774Z,8.32
2022-08-19T11:08:23.206Z,9.38
2022-08-19T11:11:02.017Z,8.73
2022-08-19T11:13:31.120Z,9.02
2022-08-19T11:16:07.163Z,9.20
2022-08-19T11:18:38.089Z,8.73
2022-08-19T11:21:11.505Z,9.50
2022-08-19T11:23:39.656Z,9.98
2022-08-19T11:26:08.333Z,9.38
2022-08-19T11:28:36.335Z,9.63
2022-08-19T11:31:05.855Z,9.40
2022-08-19T11:33:33.595Z,9.05
2022-08-19T11:36:02.032Z,9.18
2022-08-19T11:38:30.181Z,9.15
2022-08-19T11:40:59.531Z,9.52
2022-08-19T11:43:28.453Z,9.35
2022-08-19T11:45:57.489Z,9.23
2022-08-19T11:48:27.604Z,9.35
2022-08-19T11:50:56.366Z,9.00
2022-08-19T11:53:24.930Z,11.05
2022-08-19T11:55:56.857Z,9.32
2022-08-19T11:58:25.777Z,9.15
2022-08-19T12:00:54.739Z,8.05
2022-08-19T12:03:23.025Z,8.15
2022-08-19T12:05:52.700Z,8.10
2022-08-19T12:08:21.167Z,8.80
2022-08-19T12:10:48.941Z,8.88
2022-08-19T12:13:19.686Z,8.75
2022-08-19T12:15:49.826Z,8.73
2022-08-19T12:18:17.532Z,9.40
2022-08-19T12:20:46.809Z,9.00
2022-08-19T12:23:16.178Z,9.13
2022-08-19T12:25:50.895Z,8.80
2022-08-19T12:28:19.788Z,8.52
2022-08-19T12:30:47.834Z,7.55
2022-08-19T12:33:16.161Z,7.68
2022-08-19T12:35:47.447Z,8.02
2022-08-19T12:38:16.667Z,7.78
2022-08-19T12:40:48.950Z,7.50
2022-08-19T12:43:17.534Z,6.45
2022-08-19T12:45:46.030Z,7.15
2022-08-19T12:48:34.899Z,7.15
2022-08-19T12:51:08.555Z,7.68
2022-08-19T12:53:39.402Z,7.03
2022-08-19T12:56:12.162Z,10.07
2022-08-19T12:58:42.610Z,6.75
2022-08-19T13:01:22.618Z,7.38
2022-08-19T13:03:53.429Z,7.57
2022-08-19T13:08:51.994Z,6.95
2022-08-19T13:11:25.267Z,6.55
2022-08-19T13:13:56.030Z,7.10
2022-08-19T13:16:24.184Z,7.70
2022-08-19T13:18:53.001Z,7.25
2022-08-19T13:21:23.765Z,7.25
2022-08-19T13:26:21.317Z,6.60
2022-08-19T13:29:06.740Z,7.47
2022-08-19T13:31:54.500Z,7.32
2022-08-19T13:34:32.926Z,7.07
2022-08-19T13:37:03.824Z,6.88
2022-08-19T13:39:33.575Z,6.75
2022-08-19T13:42:02.129Z,6.68
2022-08-19T13:44:31.014Z,6.50
2022-08-19T13:47:07.798Z,6.35
2022-08-19T13:49:36.865Z,6.57
2022-08-19T13:52:06.416Z,6.68
2022-08-19T13:54:35.613Z,6.28
2022-08-19T13:57:03.401Z,6.10
2022-08-19T13:59:31.326Z,6.63
2022-08-19T14:02:00.004Z,5.78
2022-08-19T14:04:27.895Z,5.90
2022-08-19T14:06:55.958Z,6.63
2022-08-19T14:09:23.861Z,5.75
2022-08-19T14:11:52.939Z,7.05
2022-08-19T14:14:21.002Z,6.18
2022-08-19T14:16:49.105Z,6.65
2022-08-19T14:19:16.985Z,6.45
2022-08-19T14:21:45.136Z,6.68
2022-08-19T14:24:12.891Z,6.70
2022-08-19T14:26:40.665Z,7.47
2022-08-19T14:29:10.113Z,6.85
2022-08-19T14:31:37.935Z,6.55
2022-08-19T14:34:05.866Z,7.00
2022-08-19T14:36:38.985Z,6.90
2022-08-19T14:39:07.175Z,7.30
2022-08-19T14:41:35.413Z,7.25
2022-08-19T14:44:03.173Z,6.85
2022-08-19T14:46:32.220Z,7.10
2022-08-19T14:49:00.591Z,6.82
2022-08-19T14:51:28.500Z,7.55
2022-08-19T14:53:57.263Z,11.57
2022-08-19T14:56:27.641Z,25.00
2022-08-19T14:58:56.065Z,17.98
2022-08-19T15:01:24.955Z,8.23
2022-08-19T15:03:55.569Z,13.52
2022-08-19T15:06:24.290Z,19.27
2022-08-19T15:08:54.254Z,15.10
2022-08-19T15:11:24.462Z,13.63
2022-08-19T15:13:53.846Z,15.98
2022-08-19T15:16:22.820Z,10.40
2022-08-19T15:18:57.811Z,10.77
2022-08-19T15:21:27.680Z,9.70
2022-08-19T15:23:58.237Z,8.75
2022-08-19T15:26:26.654Z,8.38
2022-08-19T15:28:54.589Z,8.05
2022-08-19T15:31:25.553Z,8.18
2022-08-19T15:33:59.306Z,8.63
2022-08-19T15:36:28.425Z,8.23
2022-08-19T15:38:56.937Z,8.25
2022-08-19T15:41:27.903Z,7.93
2022-08-19T15:43:58.791Z,8.57
2022-08-19T15:46:30.431Z,7.65
2022-08-19T15:49:01.209Z,8.02
2022-08-19T15:51:31.353Z,7.90
2022-08-19T15:54:01.054Z,8.55
2022-08-19T15:56:57.475Z,8.18
2022-08-19T15:59:46.713Z,8.80
2022-08-19T16:02:33.965Z,8.32
2022-08-19T16:05:21.175Z,8.95
2022-08-19T16:07:51.055Z,9.40
2022-08-19T16:10:26.954Z,7.87
2022-08-19T16:12:57.140Z,9.07
2022-08-19T16:15:27.766Z,8.63
2022-08-19T16:17:57.193Z,8.60
2022-08-19T16:20:28.057Z,8.27
2022-08-19T16:22:58.364Z,8.80
2022-08-19T16:25:29.842Z,9.07
2022-08-19T16:28:06.443Z,8.57
2022-08-19T16:30:38.340Z,10.05
2022-08-19T16:33:06.975Z,9.53
2022-08-19T16:35:36.652Z,9.18
2022-08-19T16:38:04.629Z,9.68
2022-08-19T16:40:32.656Z,9.75
2022-08-19T16:43:02.821Z,8.85
2022-08-19T16:45:31.578Z,9.67
2022-08-19T16:47:59.581Z,9.05
2022-08-19T16:50:47.842Z,8.63
2022-08-19T16:53:17.107Z,8.95
2022-08-19T16:55:46.747Z,9.00
2022-08-19T16:58:14.582Z,8.60
2022-08-19T17:00:42.537Z,8.73
2022-08-19T17:03:14.955Z,11.05
2022-08-19T17:05:43.899Z,9.27
2022-08-19T17:08:12.033Z,9.05
2022-08-19T17:10:45.663Z,10.30
2022-08-19T17:13:28.548Z,10.52
2022-08-19T17:15:56.981Z,10.82
2022-08-19T17:18:25.759Z,11.75
2022-08-19T17:21:01.017Z,10.68
2022-08-19T17:23:42.102Z,10.55
2022-08-19T17:26:18.149Z,10.50
2022-08-19T17:28:48.998Z,10.05
2022-08-19T17:31:17.365Z,10.70
2022-08-19T17:33:46.232Z,9.95
2022-08-19T17:36:17.230Z,9.93
2022-08-19T17:38:45.722Z,10.68
2022-08-19T17:41:14.807Z,10.65
2022-08-19T17:43:44.092Z,11.38
2022-08-19T17:46:17.993Z,10.48
2022-08-19T17:48:52.920Z,11.45
2022-08-19T17:51:23.897Z,10.82
2022-08-19T17:53:54.369Z,10.90
2022-08-19T17:56:24.777Z,10.65
2022-08-19T17:58:59.978Z,10.90
2022-08-19T18:01:31.430Z,13.00
2022-08-19T18:04:12.130Z,14.48
2022-08-19T18:06:41.690Z,16.10
2022-08-19T18:09:14.584Z,15.25
2022-08-19T18:11:44.707Z,14.07
2022-08-19T18:14:13.197Z,13.80
2022-08-19T18:16:41.061Z,16.83
2022-08-19T18:19:09.061Z,16.63
2022-08-19T18:21:36.824Z,16.40
2022-08-19T18:24:04.906Z,16.30
2022-08-19T18:26:32.978Z,13.65
2022-08-19T18:29:02.890Z,11.13
2022-08-19T18:31:30.682Z,11.13
2022-08-19T18:33:59.032Z,12.63
2022-08-19T18:36:52.558Z,13.05
2022-08-19T18:39:34.433Z,11.57
2022-08-19T18:42:22.690Z,10.77
2022-08-19T18:45:09.482Z,10.43
2022-08-19T18:47:54.874Z,9.35
2022-08-19T18:50:22.978Z,10.25
2022-08-19T18:52:50.646Z,9.90
2022-08-19T18:55:18.695Z,9.15
2022-08-19T18:57:46.736Z,9.43
2022-08-19T19:00:16.663Z,9.02
2022-08-19T19:02:45.328Z,9.13
2022-08-19T19:05:15.141Z,10.00
2022-08-19T19:07:43.920Z,10.18
2022-08-19T19:10:11.749Z,9.45
2022-08-19T19:12:44.427Z,9.45
2022-08-19T19:15:13.499Z,10.02
2022-08-19T19:17:46.515Z,10.70
2022-08-19T19:20:14.320Z,10.13
2022-08-19T19:22:42.234Z,9.93
2022-08-19T19:25:11.411Z,11.40
2022-08-19T19:27:40.298Z,10.85
2022-08-19T19:30:09.622Z,9.90
2022-08-19T19:32:39.225Z,10.35
2022-08-19T19:35:10.597Z,10.32
2022-08-19T19:40:07.210Z,10.60
2022-08-19T19:42:35.089Z,11.65
2022-08-19T19:45:03.834Z,11.35
2022-08-19T19:47:31.685Z,11.73
2022-08-19T19:50:16.085Z,12.18
2022-08-19T19:52:47.279Z,11.52
2022-08-19T19:55:17.873Z,11.80
2022-08-19T19:57:46.320Z,12.03
2022-08-19T20:00:17.174Z,12.38
2022-08-19T20:02:49.596Z,10.77
2022-08-19T20:05:21.186Z,10.65
2022-08-19T20:08:09.281Z,11.27
2022-08-19T20:10:37.856Z,11.50
2022-08-19T20:13:06.132Z,12.00
2022-08-19T20:15:34.000Z,12.02
2022-08-19T20:18:02.317Z,11.63
2022-08-19T20:20:30.182Z,11.98
2022-08-19T20:22:59.497Z,11.50
2022-08-19T20:25:27.629Z,11.55
2022-08-19T20:27:55.472Z,11.48
2022-08-19T20:30:23.512Z,11.77
2022-08-19T20:32:51.786Z,11.73
2022-08-19T20:35:22.128Z,12.05
2022-08-19T20:37:52.864Z,11.50
2022-08-19T20:40:25.681Z,11.75
2022-08-19T20:42:54.261Z,11.90
2022-08-19T20:45:32.784Z,11.23
2022-08-19T20:48:03.214Z,10.85
2022-08-19T20:50:32.224Z,11.38
2022-08-19T20:53:00.758Z,12.15
2022-08-19T20:55:30.530Z,11.82
2022-08-19T20:57:58.638Z,11.93
2022-08-19T21:00:26.454Z,11.38
2022-08-19T21:02:54.476Z,12.40
2022-08-19T21:05:23.264Z,11.95
2022-08-19T21:07:52.974Z,12.02
2022-08-19T21:10:21.585Z,12.95
2022-08-19T21:12:52.720Z,12.38
2022-08-19T21:15:20.658Z,12.70
2022-08-19T21:17:49.110Z,12.55
2022-08-19T21:20:16.849Z,12.30
2022-08-19T21:22:44.582Z,12.80
2022-08-19T21:25:13.049Z,12.75
2022-08-19T21:27:40.866Z,12.80
2022-08-19T21:30:11.767Z,12.85
2022-08-19T21:32:39.727Z,12.80
2022-08-19T21:35:08.077Z,12.38
2022-08-19T21:37:36.327Z,13.70
2022-08-19T21:40:05.473Z,11.73
2022-08-19T21:42:33.417Z,12.30
2022-08-19T21:45:01.768Z,11.93
2022-08-19T21:47:31.160Z,13.15
2022-08-19T21:49:58.931Z,11.65
2022-08-19T21:52:27.874Z,11.98
2022-08-19T21:54:57.182Z,11.43
2022-08-19T21:57:25.435Z,11.73
2022-08-19T21:59:54.259Z,10.30
2022-08-19T22:02:22.448Z,10.80
2022-08-19T22:04:53.525Z,11.90
2022-08-19T22:07:22.848Z,10.20
2022-08-19T22:09:51.773Z,11.13
2022-08-19T22:12:26.934Z,11.63
2022-08-19T22:14:55.704Z,10.60
2022-08-19T22:17:24.148Z,11.05
2022-08-19T22:19:54.030Z,11.13
2022-08-19T22:22:23.994Z,11.70
2022-08-19T22:24:52.296Z,11.38
2022-08-19T22:27:20.870Z,11.43
2022-08-19T22:29:52.375Z,11.27
2022-08-19T22:32:27.015Z,11.95
2022-08-19T22:35:00.561Z,11.40
2022-08-19T22:37:31.699Z,11.85
2022-08-19T22:40:00.558Z,11.68
2022-08-19T22:42:31.858Z,11.23
2022-08-19T22:45:01.806Z,11.27
2022-08-19T22:47:32.069Z,12.25
2022-08-19T22:50:05.514Z,11.30
2022-08-19T22:52:33.385Z,11.77
2022-08-19T22:55:06.080Z,11.32
2022-08-19T22:57:34.713Z,10.73
2022-08-19T23:00:03.414Z,11.18
2022-08-19T23:02:38.570Z,10.88
2022-08-19T23:05:22.416Z,11.95
2022-08-19T23:07:52.783Z,12.33
2022-08-19T23:10:26.897Z,12.40
2022-08-19T23:12:58.454Z,12.05
2022-08-19T23:15:28.993Z,12.47
2022-08-19T23:18:00.673Z,12.98
2022-08-19T23:20:33.711Z,13.07
2022-08-19T23:23:03.829Z,12.50
2022-08-19T23:25:34.496Z,12.95
2022-08-19T23:28:20.754Z,13.10
2022-08-19T23:30:50.889Z,12.93
2022-08-19T23:33:24.587Z,13.43
2022-08-19T23:35:56.808Z,12.25
2022-08-19T23:38:25.481Z,12.93
2022-08-19T23:40:57.225Z,13.52
2022-08-19T23:43:25.687Z,14.88
2022-08-19T23:45:57.455Z,14.27
2022-08-19T23:48:26.049Z,14.27
2022-08-19T23:50:58.578Z,14.63
2022-08-19T23:53:27.579Z,14.23
2022-08-19T23:55:55.973Z,12.75
2022-08-19T23:58:29.332Z,15.27
